Livonia, New York
Current Conditions -  °F | °C
As of 10:54 PM on Tuesday 27 Jan 2015 (Local Time) from KDSV Reporting Station
Clear Clear  
Wind Chill:   Ceiling: Unl
Heat Index:   Visibility: 10mi
Dew Point: -4°   Wind: 3mph
Humidity: 83%   Direction: 160°SSE
Pressure: 30.08"   Gusts: NA
Location:  42.82°N, 77.67°W
Report Text: KDSV 280354Z AUTO 16003KT 10SM CLR M18/M20 A3008 RMK AO2 SLP212 T11781200 $
Loading
Personal Weather Stations






























Interactive Weather Map New forecast layout! Learn more

10-Day Weather Forecast

Advertisements
Track Severe Weather on mobile